createdAt,value
2018-08-12T00:00:53.397Z,54.99
2018-08-12T00:01:54.023Z,54.99
2018-08-12T00:02:53.396Z,55.18
2018-08-12T00:03:53.399Z,55.08
2018-08-12T00:04:53.399Z,55.65
2018-08-12T00:05:53.399Z,55.27
2018-08-12T00:06:53.397Z,55.08
2018-08-12T00:07:53.400Z,55.27
2018-08-12T00:08:53.399Z,55.46
2018-08-12T00:09:53.399Z,55.36
2018-08-12T00:10:53.398Z,54.89
2018-08-12T00:11:53.435Z,55.46
2018-08-12T00:12:53.400Z,55.36
2018-08-12T00:13:53.399Z,55.27
2018-08-12T00:14:53.400Z,55.44
2018-08-12T00:15:53.401Z,55.08
2018-08-12T00:16:53.399Z,55.36
2018-08-12T00:17:53.398Z,55.53
2018-08-12T00:18:53.899Z,55.63
2018-08-12T00:19:53.400Z,55.56
2018-08-12T00:20:53.397Z,55.44
2018-08-12T00:21:53.497Z,55.05
2018-08-12T00:22:53.398Z,55.63
2018-08-12T00:23:53.399Z,55.53
2018-08-12T00:24:53.400Z,55.34
2018-08-12T00:25:53.414Z,55.73
2018-08-12T00:26:53.400Z,56.39
2018-08-12T00:27:53.400Z,55.91
2018-08-12T00:28:53.429Z,55.63
2018-08-12T00:29:53.400Z,55.63
2018-08-12T00:30:53.401Z,56.01
2018-08-12T00:31:53.403Z,55.82
2018-08-12T00:32:53.402Z,55.82
2018-08-12T00:33:53.400Z,55.63
2018-08-12T00:34:53.409Z,55.63
2018-08-12T00:35:53.400Z,56.10
2018-08-12T00:36:53.399Z,55.63
2018-08-12T00:37:53.411Z,56.10
2018-08-12T00:38:53.488Z,56.01
2018-08-12T00:39:53.406Z,56.10
2018-08-12T00:40:53.400Z,56.10
2018-08-12T00:41:53.401Z,56.49
2018-08-12T00:42:53.401Z,56.59
2018-08-12T00:43:53.405Z,56.68
2018-08-12T00:44:53.399Z,56.30
2018-08-12T00:45:53.403Z,56.59
2018-08-12T00:46:53.402Z,56.68
2018-08-12T00:47:53.401Z,56.68
2018-08-12T00:48:53.400Z,57.06
2018-08-12T00:49:53.400Z,56.37
2018-08-12T00:50:53.439Z,56.46
2018-08-12T00:51:53.402Z,56.87
2018-08-12T00:52:53.400Z,56.39
2018-08-12T00:53:53.400Z,56.75
2018-08-12T00:54:53.404Z,57.06
2018-08-12T00:55:53.403Z,56.77
2018-08-12T00:56:53.400Z,56.75
2018-08-12T00:57:53.409Z,56.84
2018-08-12T00:58:53.409Z,56.94
2018-08-12T00:59:53.399Z,56.84
2018-08-12T01:00:53.398Z,57.06
2018-08-12T01:01:53.399Z,56.65
2018-08-12T01:02:53.399Z,56.84
2018-08-12T01:03:53.400Z,56.75
2018-08-12T01:04:53.397Z,57.51
2018-08-12T01:05:53.400Z,57.42
2018-08-12T01:06:53.399Z,57.42
2018-08-12T01:07:53.403Z,57.42
2018-08-12T01:08:53.404Z,57.51
2018-08-12T01:09:53.400Z,57.51
2018-08-12T01:10:53.400Z,57.32
2018-08-12T01:11:53.412Z,57.42
2018-08-12T01:12:53.397Z,57.51
2018-08-12T01:13:53.395Z,57.32
2018-08-12T01:14:53.399Z,57.42
2018-08-12T01:15:53.396Z,57.70
2018-08-12T01:16:53.396Z,57.23
2018-08-12T01:17:53.395Z,57.42
2018-08-12T01:18:53.395Z,57.51
2018-08-12T01:19:53.396Z,57.51
2018-08-12T01:20:53.398Z,57.51
2018-08-12T01:21:53.393Z,57.61
2018-08-12T01:22:53.394Z,57.61
2018-08-12T01:23:53.395Z,57.61
2018-08-12T01:24:53.395Z,57.51
2018-08-12T01:25:53.482Z,58.18
2018-08-12T01:26:53.413Z,57.99
2018-08-12T01:27:53.392Z,57.32
2018-08-12T01:28:53.394Z,57.51
2018-08-12T01:29:53.390Z,57.42
2018-08-12T01:30:53.407Z,57.51
2018-08-12T01:31:53.390Z,58.09
2018-08-12T01:32:53.389Z,58.09
2018-08-12T01:33:53.393Z,58.28
2018-08-12T01:34:53.391Z,58.18
2018-08-12T01:35:53.443Z,58.28
2018-08-12T01:36:53.388Z,58.18
2018-08-12T01:37:53.388Z,58.47
2018-08-12T01:38:53.387Z,58.56
2018-08-12T01:39:53.388Z,58.18
2018-08-12T01:40:53.404Z,58.09
2018-08-12T01:41:53.386Z,58.56
2018-08-12T01:42:53.386Z,58.56
2018-08-12T01:43:53.388Z,58.47
2018-08-12T01:44:53.392Z,58.34
2018-08-12T01:45:53.386Z,58.63
2018-08-12T01:46:53.388Z,58.37
2018-08-12T01:47:53.384Z,58.47
2018-08-12T01:48:53.383Z,58.44
2018-08-12T01:49:53.383Z,58.66
2018-08-12T01:50:53.383Z,58.95
2018-08-12T01:51:53.384Z,58.44
2018-08-12T01:52:53.381Z,58.83
2018-08-12T01:53:53.384Z,59.30
2018-08-12T01:54:53.380Z,59.78
2018-08-12T01:55:53.380Z,59.49
2018-08-12T01:56:53.380Z,58.92
2018-08-12T01:57:53.381Z,59.40
2018-08-12T01:58:53.384Z,59.69
2018-08-12T01:59:53.391Z,59.40
2018-08-12T02:00:53.376Z,59.40
2018-08-12T02:01:53.415Z,59.59
2018-08-12T02:02:53.376Z,59.69
2018-08-12T02:03:53.376Z,59.49
2018-08-12T02:04:53.701Z,59.49
2018-08-12T02:05:53.373Z,59.97
2018-08-12T02:06:53.374Z,60.64
2018-08-12T02:07:53.373Z,60.06
2018-08-12T02:08:53.372Z,59.49
2018-08-12T02:09:53.371Z,59.11
2018-08-12T02:10:53.371Z,59.88
2018-08-12T02:11:53.370Z,60.64
2018-08-12T02:12:53.369Z,60.16
2018-08-12T02:13:53.369Z,60.35
2018-08-12T02:14:53.369Z,60.06
2018-08-12T02:15:53.371Z,60.16
2018-08-12T02:16:53.369Z,60.64
2018-08-12T02:17:53.366Z,60.06
2018-08-12T02:18:53.366Z,60.33
2018-08-12T02:19:53.368Z,60.93
2018-08-12T02:20:53.363Z,60.16
2018-08-12T02:21:53.364Z,60.61
2018-08-12T02:22:53.363Z,60.45
2018-08-12T02:23:53.364Z,60.74
2018-08-12T02:24:53.364Z,60.74
2018-08-12T02:25:53.361Z,60.55
2018-08-12T02:26:53.360Z,60.55
2018-08-12T02:27:53.359Z,60.35
2018-08-12T02:28:53.358Z,60.35
2018-08-12T02:29:53.358Z,60.52
2018-08-12T02:30:53.362Z,60.45
2018-08-12T02:31:53.359Z,60.61
2018-08-12T02:32:53.355Z,61.09
2018-08-12T02:33:53.358Z,61.79
2018-08-12T02:34:53.356Z,60.80
2018-08-12T02:35:54.111Z,60.83
2018-08-12T02:36:53.352Z,60.99
2018-08-12T02:37:53.353Z,60.93
2018-08-12T02:38:53.361Z,60.71
2018-08-12T02:39:53.351Z,60.71
2018-08-12T02:40:53.348Z,60.71
2018-08-12T02:41:53.357Z,61.57
2018-08-12T02:42:53.347Z,61.19
2018-08-12T02:43:53.348Z,60.99
2018-08-12T02:44:53.345Z,60.52
2018-08-12T02:45:53.345Z,61.57
2018-08-12T02:46:53.345Z,61.09
2018-08-12T02:47:53.344Z,61.09
2018-08-12T02:48:53.343Z,61.28
2018-08-12T02:49:53.342Z,61.38
2018-08-12T02:50:53.343Z,61.47
2018-08-12T02:51:53.340Z,61.57
2018-08-12T02:52:53.357Z,61.09
2018-08-12T02:53:53.339Z,61.57
2018-08-12T02:54:53.338Z,60.71
2018-08-12T02:55:53.384Z,60.61
2018-08-12T02:56:53.338Z,61.28
2018-08-12T02:57:53.336Z,61.47
2018-08-12T02:58:53.337Z,61.57
2018-08-12T02:59:53.333Z,61.28
2018-08-12T03:00:53.334Z,61.09
2018-08-12T03:01:53.332Z,61.28
2018-08-12T03:02:53.331Z,60.99
2018-08-12T03:03:53.330Z,60.99
2018-08-12T03:04:53.329Z,60.90
2018-08-12T03:05:53.329Z,60.99
2018-08-12T03:06:53.328Z,61.28
2018-08-12T03:07:53.335Z,61.28
2018-08-12T03:08:53.325Z,61.38
2018-08-12T03:09:53.334Z,61.28
2018-08-12T03:10:53.350Z,61.28
2018-08-12T03:11:53.326Z,61.47
2018-08-12T03:12:53.321Z,61.28
2018-08-12T03:13:53.320Z,61.47
2018-08-12T03:14:53.321Z,61.85
2018-08-12T03:15:53.321Z,61.38
2018-08-12T03:16:53.327Z,61.47
2018-08-12T03:17:53.317Z,61.47
2018-08-12T03:18:53.316Z,61.47
2018-08-12T03:19:53.314Z,61.85
2018-08-12T03:20:53.313Z,62.24
2018-08-12T03:21:53.316Z,62.04
2018-08-12T03:22:53.315Z,61.85
2018-08-12T03:23:53.312Z,61.76
2018-08-12T03:24:53.314Z,62.43
2018-08-12T03:25:53.309Z,62.71
2018-08-12T03:26:53.307Z,62.43
2018-08-12T03:27:53.309Z,62.43
2018-08-12T03:28:53.304Z,62.33
2018-08-12T03:29:53.310Z,61.85
2018-08-12T03:30:53.304Z,62.14
2018-08-12T03:31:53.306Z,62.71
2018-08-12T03:32:53.302Z,62.43
2018-08-12T03:33:53.299Z,62.71
2018-08-12T03:34:53.304Z,62.14
2018-08-12T03:35:53.318Z,62.71
2018-08-12T03:36:53.296Z,62.52
2018-08-12T03:37:53.297Z,62.52
2018-08-12T03:38:53.294Z,62.78
2018-08-12T03:39:53.313Z,62.43
2018-08-12T03:40:53.295Z,62.62
2018-08-12T03:41:53.293Z,63.10
2018-08-12T03:42:53.290Z,62.87
2018-08-12T03:43:53.290Z,62.81
2018-08-12T03:44:53.288Z,62.90
2018-08-12T03:45:53.287Z,62.90
2018-08-12T03:46:53.286Z,62.87
2018-08-12T03:47:53.290Z,63.10
2018-08-12T03:48:53.322Z,62.87
2018-08-12T03:49:53.282Z,63.07
2018-08-12T03:50:53.283Z,62.59
2018-08-12T03:51:53.281Z,62.59
2018-08-12T03:52:53.279Z,62.87
2018-08-12T03:53:53.280Z,63.39
2018-08-12T03:54:53.277Z,63.26
2018-08-12T03:55:53.278Z,62.90
2018-08-12T03:56:53.275Z,63.07
2018-08-12T03:57:53.277Z,62.97
2018-08-12T03:58:53.273Z,62.87
2018-08-12T03:59:53.272Z,63.73
2018-08-12T04:00:53.290Z,63.83
2018-08-12T04:01:53.269Z,63.54
2018-08-12T04:02:53.271Z,63.54
2018-08-12T04:03:53.272Z,63.54
2018-08-12T04:04:53.265Z,63.45
2018-08-12T04:05:53.265Z,63.64
2018-08-12T04:06:53.264Z,63.73
2018-08-12T04:07:53.344Z,63.45
2018-08-12T04:08:53.261Z,63.54
2018-08-12T04:09:53.259Z,63.16
2018-08-12T04:10:53.262Z,63.35
2018-08-12T04:11:53.257Z,63.64
2018-08-12T04:12:53.255Z,63.54
2018-08-12T04:13:53.255Z,63.35
2018-08-12T04:14:53.254Z,63.26
2018-08-12T04:15:53.253Z,63.35
2018-08-12T04:16:53.249Z,63.35
2018-08-12T04:17:53.250Z,63.26
2018-08-12T04:18:53.279Z,63.83
2018-08-12T04:19:53.247Z,63.93
2018-08-12T04:20:53.244Z,64.22
2018-08-12T04:21:53.244Z,64.22
2018-08-12T04:22:53.243Z,64.22
2018-08-12T04:23:53.243Z,63.93
2018-08-12T04:24:53.241Z,63.83
2018-08-12T04:25:53.239Z,64.02
2018-08-12T04:26:53.237Z,63.73
2018-08-12T04:27:53.236Z,63.45
2018-08-12T04:28:53.238Z,63.26
2018-08-12T04:29:53.264Z,63.35
2018-08-12T04:30:53.233Z,63.26
2018-08-12T04:31:53.234Z,63.35
2018-08-12T04:32:53.229Z,63.45
2018-08-12T04:33:53.232Z,63.35
2018-08-12T04:34:53.230Z,63.54
2018-08-12T04:35:53.227Z,63.93
2018-08-12T04:36:53.224Z,63.93
2018-08-12T04:37:53.236Z,63.93
2018-08-12T04:38:53.765Z,63.93
2018-08-12T04:39:53.222Z,63.93
2018-08-12T04:40:53.221Z,64.12
2018-08-12T04:41:53.219Z,64.12
2018-08-12T04:42:53.217Z,63.07
2018-08-12T04:43:53.215Z,63.19
2018-08-12T04:44:53.219Z,63.48
2018-08-12T04:45:53.238Z,62.62
2018-08-12T04:46:53.216Z,62.71
2018-08-12T04:47:53.212Z,62.33
2018-08-12T04:48:53.209Z,62.62
2018-08-12T04:49:53.209Z,61.88
2018-08-12T04:50:53.210Z,61.51
2018-08-12T04:51:53.205Z,61.31
2018-08-12T04:52:53.205Z,60.55
2018-08-12T04:53:53.203Z,61.12
2018-08-12T04:54:53.204Z,60.48
2018-08-12T04:55:53.202Z,60.10
2018-08-12T04:56:53.200Z,60.67
2018-08-12T04:57:53.202Z,60.10
2018-08-12T04:58:53.200Z,60.29
2018-08-12T04:59:53.200Z,60.38
2018-08-12T05:00:53.198Z,60.00
2018-08-12T05:01:53.198Z,60.29
2018-08-12T05:02:53.198Z,60.48
2018-08-12T05:03:53.201Z,60.10
2018-08-12T05:04:53.195Z,60.29
2018-08-12T05:05:53.194Z,60.10
2018-08-12T05:06:53.201Z,60.19
2018-08-12T05:07:53.195Z,60.29
2018-08-12T05:08:53.195Z,60.38
2018-08-12T05:09:54.151Z,60.29
2018-08-12T05:10:53.195Z,60.29
2018-08-12T05:11:53.194Z,60.38
2018-08-12T05:12:53.190Z,60.58
2018-08-12T05:13:53.191Z,60.77
2018-08-12T05:14:53.192Z,60.29
2018-08-12T05:15:53.189Z,60.29
2018-08-12T05:16:53.189Z,60.29
2018-08-12T05:17:53.191Z,60.10
2018-08-12T05:18:53.189Z,60.67
2018-08-12T05:19:53.189Z,60.38
2018-08-12T05:20:53.188Z,60.58
2018-08-12T05:21:53.189Z,60.38
2018-08-12T05:22:53.188Z,60.19
2018-08-12T05:23:53.187Z,60.48
2018-08-12T05:24:53.188Z,59.55
2018-08-12T05:25:53.186Z,59.65
2018-08-12T05:26:53.184Z,59.75
2018-08-12T05:27:53.184Z,59.65
2018-08-12T05:28:53.184Z,59.17
2018-08-12T05:29:53.187Z,58.81
2018-08-12T05:30:53.186Z,57.38
2018-08-12T05:31:53.185Z,57.28
2018-08-12T05:32:53.182Z,56.74
2018-08-12T05:33:53.186Z,55.87
2018-08-12T05:34:53.185Z,55.80
2018-08-12T05:35:53.185Z,54.78
2018-08-12T05:36:53.185Z,53.75
2018-08-12T05:37:53.183Z,52.50
2018-08-12T05:38:53.183Z,52.40
2018-08-12T05:39:53.183Z,53.24
2018-08-12T05:40:53.188Z,53.34
2018-08-12T05:41:53.185Z,53.72
2018-08-12T05:42:53.186Z,53.24
2018-08-12T05:43:53.188Z,53.17
2018-08-12T05:44:53.192Z,52.02
2018-08-12T05:45:53.188Z,52.34
2018-08-12T05:46:53.192Z,51.67
2018-08-12T05:47:53.192Z,51.09
2018-08-12T05:48:53.193Z,51.28
2018-08-12T05:49:53.192Z,50.90
2018-08-12T05:50:53.199Z,50.99
2018-08-12T05:51:53.198Z,51.45
2018-08-12T05:52:53.195Z,51.64
2018-08-12T05:53:53.197Z,52.38
2018-08-12T05:54:53.201Z,53.15
2018-08-12T05:55:53.200Z,53.44
2018-08-12T05:56:53.203Z,54.01
2018-08-12T05:57:53.204Z,54.17
2018-08-12T05:58:53.206Z,53.70
2018-08-12T05:59:53.204Z,54.37
2018-08-12T06:00:53.206Z,55.04
2018-08-12T06:01:53.206Z,55.13
2018-08-12T06:02:53.278Z,54.85
2018-08-12T06:03:53.208Z,54.85
2018-08-12T06:04:53.209Z,55.71
2018-08-12T06:05:53.210Z,55.42
2018-08-12T06:06:53.211Z,55.33
2018-08-12T06:07:53.216Z,55.42
2018-08-12T06:08:53.234Z,55.04
2018-08-12T06:09:53.213Z,55.13
2018-08-12T06:10:53.214Z,55.13
2018-08-12T06:11:53.215Z,55.13
2018-08-12T06:12:53.217Z,55.33
2018-08-12T06:13:53.217Z,55.04
2018-08-12T06:14:53.219Z,55.33
2018-08-12T06:15:53.221Z,55.04
2018-08-12T06:16:53.219Z,55.04
2018-08-12T06:17:53.219Z,54.56
2018-08-12T06:18:53.221Z,55.23
2018-08-12T06:19:53.222Z,55.33
2018-08-12T06:20:53.222Z,55.42
2018-08-12T06:21:53.226Z,54.94
2018-08-12T06:22:53.225Z,55.33
2018-08-12T06:23:53.224Z,55.04
2018-08-12T06:24:53.227Z,55.23
2018-08-12T06:25:53.226Z,55.33
2018-08-12T06:26:53.227Z,55.42
2018-08-12T06:27:53.227Z,55.23
2018-08-12T06:28:53.230Z,54.75
2018-08-12T06:29:53.228Z,55.42
2018-08-12T06:30:53.229Z,55.13
2018-08-12T06:31:53.238Z,55.04
2018-08-12T06:32:53.233Z,55.62
2018-08-12T06:33:53.231Z,55.04
2018-08-12T06:34:53.232Z,55.13
2018-08-12T06:35:53.233Z,55.33
2018-08-12T06:36:53.233Z,55.33
2018-08-12T06:37:53.233Z,55.13
2018-08-12T06:38:53.245Z,55.04
2018-08-12T06:39:53.252Z,55.33
2018-08-12T06:40:53.261Z,55.13
2018-08-12T06:41:53.360Z,54.75
2018-08-12T06:42:53.237Z,55.62
2018-08-12T06:43:53.238Z,55.52
2018-08-12T06:44:53.238Z,55.42
2018-08-12T06:45:53.240Z,55.13
2018-08-12T06:46:53.239Z,55.33
2018-08-12T06:47:53.240Z,54.94
2018-08-12T06:48:53.256Z,54.94
2018-08-12T06:49:53.241Z,55.23
2018-08-12T06:50:53.243Z,54.94
2018-08-12T06:51:53.272Z,54.85
2018-08-12T06:52:53.243Z,54.56
2018-08-12T06:53:53.243Z,54.85
2018-08-12T06:54:53.244Z,54.66
2018-08-12T06:55:53.245Z,54.27
2018-08-12T06:56:53.248Z,54.46
2018-08-12T06:57:53.245Z,53.99
2018-08-12T06:58:53.246Z,54.11
2018-08-12T06:59:53.249Z,53.89
2018-08-12T07:00:53.248Z,54.21
2018-08-12T07:01:53.248Z,53.79
2018-08-12T07:02:53.251Z,54.01
2018-08-12T07:03:53.249Z,54.11
2018-08-12T07:04:53.252Z,54.11
2018-08-12T07:05:53.258Z,54.01
2018-08-12T07:06:53.252Z,54.01
2018-08-12T07:07:53.251Z,54.01
2018-08-12T07:08:53.252Z,53.72
2018-08-12T07:09:53.254Z,54.11
2018-08-12T07:10:53.253Z,53.91
2018-08-12T07:11:53.256Z,53.53
2018-08-12T07:12:53.780Z,53.34
2018-08-12T07:13:53.255Z,54.11
2018-08-12T07:14:53.256Z,53.24
2018-08-12T07:15:53.258Z,53.63
2018-08-12T07:16:53.255Z,53.72
2018-08-12T07:17:53.257Z,53.72
2018-08-12T07:18:53.258Z,53.85
2018-08-12T07:19:53.261Z,53.34
2018-08-12T07:20:53.257Z,53.46
2018-08-12T07:21:53.259Z,53.08
2018-08-12T07:22:53.260Z,52.40
2018-08-12T07:23:53.260Z,52.60
2018-08-12T07:24:53.261Z,52.50
2018-08-12T07:25:53.262Z,52.02
2018-08-12T07:26:53.262Z,52.12
2018-08-12T07:27:53.266Z,52.22
2018-08-12T07:28:53.270Z,51.64
2018-08-12T07:29:53.269Z,51.45
2018-08-12T07:30:53.267Z,50.87
2018-08-12T07:31:53.267Z,50.78
2018-08-12T07:32:53.302Z,50.58
2018-08-12T07:33:53.268Z,50.80
2018-08-12T07:34:53.270Z,51.57
2018-08-12T07:35:53.274Z,50.90
2018-08-12T07:36:53.274Z,51.37
2018-08-12T07:37:53.271Z,50.61
2018-08-12T07:38:53.281Z,50.70
2018-08-12T07:39:53.274Z,50.61
2018-08-12T07:40:53.273Z,50.03
2018-08-12T07:41:53.276Z,50.32
2018-08-12T07:42:53.275Z,50.80
2018-08-12T07:43:54.164Z,50.82
2018-08-12T07:44:53.277Z,50.73
2018-08-12T07:45:53.286Z,50.34
2018-08-12T07:46:53.282Z,50.15
2018-08-12T07:47:53.280Z,50.44
2018-08-12T07:48:53.365Z,50.15
2018-08-12T07:49:53.283Z,50.25
2018-08-12T07:50:53.283Z,50.34
2018-08-12T07:51:53.286Z,50.44
2018-08-12T07:52:53.289Z,50.15
2018-08-12T07:53:53.290Z,49.87
2018-08-12T07:54:53.289Z,49.29
2018-08-12T07:55:53.348Z,49.29
2018-08-12T07:56:53.292Z,49.77
2018-08-12T07:57:53.290Z,48.93
2018-08-12T07:58:53.291Z,48.74
2018-08-12T07:59:53.293Z,48.54
2018-08-12T08:00:53.293Z,48.83
2018-08-12T08:01:53.296Z,48.35
2018-08-12T08:02:53.298Z,47.97
2018-08-12T08:03:53.301Z,48.35
2018-08-12T08:04:53.300Z,47.87
2018-08-12T08:05:53.300Z,47.58
2018-08-12T08:06:53.304Z,47.61
2018-08-12T08:07:53.306Z,47.13
2018-08-12T08:08:53.304Z,47.61
2018-08-12T08:09:53.305Z,47.03
2018-08-12T08:10:53.307Z,46.93
2018-08-12T08:11:53.310Z,46.84
2018-08-12T08:12:53.309Z,47.13
2018-08-12T08:13:53.312Z,46.45
2018-08-12T08:14:53.314Z,46.19
2018-08-12T08:15:53.318Z,46.86
2018-08-12T08:16:53.316Z,46.19
2018-08-12T08:17:53.318Z,45.99
2018-08-12T08:18:53.319Z,45.70
2018-08-12T08:19:53.347Z,45.70
2018-08-12T08:20:53.322Z,45.51
2018-08-12T08:21:53.323Z,45.80
2018-08-12T08:22:53.331Z,45.44
2018-08-12T08:23:53.328Z,45.53
2018-08-12T08:24:53.329Z,45.53
2018-08-12T08:25:53.409Z,45.73
2018-08-12T08:26:53.332Z,45.63
2018-08-12T08:27:53.334Z,45.34
2018-08-12T08:28:53.336Z,45.34
2018-08-12T08:29:53.338Z,45.44
2018-08-12T08:30:53.339Z,45.05
2018-08-12T08:31:53.546Z,45.36
2018-08-12T08:32:53.343Z,45.17
2018-08-12T08:33:53.346Z,45.36
2018-08-12T08:34:53.348Z,45.07
2018-08-12T08:35:53.351Z,44.21
2018-08-12T08:36:53.354Z,44.49
2018-08-12T08:37:53.358Z,44.31
2018-08-12T08:38:53.360Z,43.92
2018-08-12T08:39:53.361Z,43.85
2018-08-12T08:40:53.361Z,44.04
2018-08-12T08:41:53.362Z,43.65
2018-08-12T08:42:53.366Z,43.17
2018-08-12T08:43:53.429Z,42.42
2018-08-12T08:44:53.372Z,42.42
2018-08-12T08:45:53.372Z,41.65
2018-08-12T08:46:53.379Z,41.28
2018-08-12T08:47:53.380Z,41.09
2018-08-12T08:48:53.380Z,41.09
2018-08-12T08:49:53.441Z,40.99
2018-08-12T08:50:53.386Z,40.63
2018-08-12T08:51:53.392Z,40.34
2018-08-12T08:52:53.391Z,39.86
2018-08-12T08:53:53.395Z,39.76
2018-08-12T08:54:53.397Z,39.18
2018-08-12T08:55:53.455Z,39.49
2018-08-12T08:56:53.401Z,39.01
2018-08-12T08:57:53.411Z,38.53
2018-08-12T08:58:53.409Z,38.74
2018-08-12T08:59:53.416Z,37.40
2018-08-12T09:00:53.416Z,36.76
2018-08-12T09:01:53.417Z,35.35
2018-08-12T09:02:53.424Z,33.73
2018-08-12T09:03:53.425Z,32.12
2018-08-12T09:04:53.428Z,30.11
2018-08-12T09:05:53.434Z,29.06
2018-08-12T09:06:53.440Z,28.40
2018-08-12T09:07:53.501Z,27.26
2018-08-12T09:08:53.606Z,26.69
2018-08-12T09:09:53.453Z,26.02
2018-08-12T09:10:53.455Z,24.96
2018-08-12T09:11:53.461Z,24.39
2018-08-12T09:12:53.466Z,24.32
2018-08-12T09:13:53.472Z,23.05
2018-08-12T09:14:53.477Z,22.77
2018-08-12T09:15:53.484Z,22.39
2018-08-12T09:16:53.489Z,21.13
2018-08-12T09:17:53.494Z,21.24
2018-08-12T09:18:53.503Z,21.15
2018-08-12T09:19:53.509Z,20.37
2018-08-12T09:20:53.528Z,20.17
2018-08-12T09:21:53.523Z,21.04
2018-08-12T09:22:53.528Z,21.22
2018-08-12T09:23:53.544Z,21.60
2018-08-12T09:24:53.543Z,21.60
2018-08-12T09:25:53.548Z,21.60
2018-08-12T09:26:53.556Z,21.71
2018-08-12T09:27:53.568Z,21.12
2018-08-12T09:28:53.581Z,21.21
2018-08-12T09:29:53.585Z,21.20
2018-08-12T09:30:53.587Z,21.97
2018-08-12T09:31:53.593Z,22.53
2018-08-12T09:32:53.599Z,22.72
2018-08-12T09:33:53.608Z,23.49
2018-08-12T09:34:53.637Z,23.77
2018-08-12T09:35:53.621Z,24.24
2018-08-12T09:36:53.628Z,24.41
2018-08-12T09:37:53.634Z,24.79
2018-08-12T09:38:53.642Z,25.27
2018-08-12T09:39:53.648Z,26.14
2018-08-12T09:40:53.655Z,26.72
2018-08-12T09:41:53.661Z,26.92
2018-08-12T09:42:53.669Z,27.31
2018-08-12T09:43:53.675Z,27.48
2018-08-12T09:44:53.679Z,27.39
2018-08-12T09:45:55.607Z,27.00
2018-08-12T09:46:53.770Z,26.42
2018-08-12T09:47:53.698Z,26.32
2018-08-12T09:48:53.704Z,26.31
2018-08-12T09:49:53.710Z,26.21
2018-08-12T09:50:53.714Z,26.98
2018-08-12T09:51:53.800Z,26.98
2018-08-12T09:52:53.725Z,27.08
2018-08-12T09:53:53.738Z,27.46
2018-08-12T09:54:53.737Z,27.17
2018-08-12T09:55:53.743Z,27.07
2018-08-12T09:56:53.746Z,27.26
2018-08-12T09:57:53.752Z,27.26
2018-08-12T09:58:53.760Z,27.36
2018-08-12T09:59:53.774Z,27.36
2018-08-12T10:00:53.778Z,27.36
2018-08-12T10:01:53.774Z,27.84
2018-08-12T10:02:53.780Z,27.17
2018-08-12T10:03:53.785Z,27.45
2018-08-12T10:04:53.789Z,27.54
2018-08-12T10:05:53.796Z,27.83
2018-08-12T10:06:53.799Z,27.93
2018-08-12T10:07:53.806Z,28.32
2018-08-12T10:08:53.809Z,28.13
2018-08-12T10:09:53.820Z,28.13
2018-08-12T10:10:53.824Z,28.13
2018-08-12T10:11:53.825Z,28.22
2018-08-12T10:12:53.832Z,28.13
2018-08-12T10:13:53.867Z,28.61
2018-08-12T10:14:53.839Z,28.51
2018-08-12T10:15:53.845Z,28.90
2018-08-12T10:16:53.849Z,29.08
2018-08-12T10:17:54.171Z,29.19
2018-08-12T10:18:53.859Z,29.10
2018-08-12T10:19:53.864Z,29.08
2018-08-12T10:20:53.867Z,28.80
2018-08-12T10:21:53.874Z,28.69
2018-08-12T10:22:53.889Z,29.17
2018-08-12T10:23:53.882Z,28.89
2018-08-12T10:24:53.887Z,29.37
2018-08-12T10:25:53.894Z,29.27
2018-08-12T10:26:53.905Z,28.98
2018-08-12T10:27:53.903Z,29.27
2018-08-12T10:28:53.925Z,29.85
2018-08-12T10:29:53.912Z,29.76
2018-08-12T10:30:53.922Z,29.27
2018-08-12T10:31:53.937Z,29.17
2018-08-12T10:32:53.927Z,29.17
2018-08-12T10:33:53.928Z,28.98
2018-08-12T10:34:53.934Z,28.98
2018-08-12T10:35:53.939Z,28.50
2018-08-12T10:36:53.942Z,28.59
2018-08-12T10:37:53.947Z,27.93
2018-08-12T10:38:53.952Z,26.98
2018-08-12T10:39:53.958Z,25.67
2018-08-12T10:40:53.963Z,23.77
2018-08-12T10:41:53.970Z,22.34
2018-08-12T10:42:53.977Z,20.82
2018-08-12T10:43:54.032Z,19.57
2018-08-12T10:44:53.987Z,18.23
2018-08-12T10:45:53.994Z,17.76
2018-08-12T10:46:54.003Z,16.51
2018-08-12T10:47:54.009Z,15.75
2018-08-12T10:48:54.615Z,15.07
2018-08-12T10:49:54.025Z,14.29
2018-08-12T10:50:54.084Z,13.92
2018-08-12T10:51:54.046Z,12.74
2018-08-12T10:52:54.054Z,12.65
2018-08-12T10:53:54.064Z,12.16
2018-08-12T10:54:54.075Z,11.87
2018-08-12T10:55:54.086Z,11.57
2018-08-12T10:56:54.097Z,11.47
2018-08-12T10:57:54.113Z,11.48
2018-08-12T10:58:54.121Z,10.99
2018-08-12T10:59:54.133Z,10.79
2018-08-12T11:00:54.147Z,10.30
2018-08-12T11:01:54.159Z,10.60
2018-08-12T11:02:54.180Z,10.39
2018-08-12T11:03:54.187Z,10.30
2018-08-12T11:04:54.197Z,10.10
2018-08-12T11:05:54.217Z,9.91
2018-08-12T11:06:54.225Z,9.92
2018-08-12T11:07:54.244Z,9.52
2018-08-12T11:08:54.263Z,9.52
2018-08-12T11:09:54.269Z,9.23
2018-08-12T11:10:54.283Z,9.14
2018-08-12T11:11:54.300Z,8.74
2018-08-12T11:12:54.316Z,9.14
2018-08-12T11:13:54.333Z,8.84
2018-08-12T11:14:54.344Z,8.44
2018-08-12T11:15:54.426Z,8.25
2018-08-12T11:16:54.373Z,8.45
2018-08-12T11:17:54.391Z,8.84
2018-08-12T11:18:54.409Z,8.44
2018-08-12T11:19:55.026Z,9.02
2018-08-12T11:20:54.437Z,9.51
2018-08-12T11:21:54.452Z,9.79
2018-08-12T11:22:54.470Z,10.07
2018-08-12T11:23:54.506Z,10.85
2018-08-12T11:24:54.496Z,10.73
2018-08-12T11:25:54.521Z,11.81
2018-08-12T11:26:54.524Z,11.90
2018-08-12T11:27:54.542Z,12.77
2018-08-12T11:28:54.577Z,13.45
2018-08-12T11:29:54.563Z,13.15
2018-08-12T11:30:54.571Z,12.75
2018-08-12T11:31:54.585Z,12.94
2018-08-12T11:32:54.594Z,13.13
2018-08-12T11:33:54.605Z,13.42
2018-08-12T11:34:54.725Z,13.41
2018-08-12T11:35:54.630Z,13.40
2018-08-12T11:36:54.634Z,13.60
2018-08-12T11:37:54.643Z,13.69
2018-08-12T11:38:54.903Z,13.79
2018-08-12T11:39:54.686Z,14.17
2018-08-12T11:40:54.670Z,14.37
2018-08-12T11:41:54.692Z,15.14
2018-08-12T11:42:54.693Z,15.53
2018-08-12T11:43:54.759Z,15.82
2018-08-12T11:44:54.705Z,16.02
2018-08-12T11:45:54.716Z,16.02
2018-08-12T11:46:54.725Z,16.11
2018-08-12T11:47:54.729Z,16.10
2018-08-12T11:48:54.737Z,16.20
2018-08-12T11:49:54.746Z,16.69
2018-08-12T11:50:55.479Z,16.49
2018-08-12T11:51:54.761Z,16.69
2018-08-12T11:52:54.767Z,17.27
2018-08-12T11:53:54.787Z,17.27
2018-08-12T11:54:54.783Z,17.07
2018-08-12T11:55:54.793Z,17.17
2018-08-12T11:56:54.843Z,16.39
2018-08-12T11:57:54.818Z,16.78
2018-08-12T11:58:54.813Z,16.58
2018-08-12T11:59:54.819Z,16.78
2018-08-12T12:00:54.825Z,16.39
2018-08-12T12:01:54.840Z,17.27
2018-08-12T12:02:54.845Z,17.25
2018-08-12T12:03:54.846Z,17.25
2018-08-12T12:04:54.860Z,17.16
2018-08-12T12:05:54.885Z,17.06
2018-08-12T12:06:54.875Z,17.06
2018-08-12T12:07:54.875Z,17.16
2018-08-12T12:08:54.928Z,17.35
2018-08-12T12:09:54.893Z,17.54
2018-08-12T12:10:54.897Z,17.15
2018-08-12T12:11:54.901Z,17.54
2018-08-12T12:12:54.920Z,17.74
2018-08-12T12:13:54.916Z,17.25
2018-08-12T12:14:54.922Z,17.44
2018-08-12T12:15:54.956Z,17.54
2018-08-12T12:16:54.943Z,17.82
2018-08-12T12:17:54.940Z,17.24
2018-08-12T12:18:54.965Z,17.72
2018-08-12T12:19:54.953Z,17.63
2018-08-12T12:20:54.958Z,17.82
2018-08-12T12:21:55.829Z,17.82
2018-08-12T12:22:55.067Z,18.02
2018-08-12T12:23:54.980Z,18.21
2018-08-12T12:24:54.983Z,17.53
2018-08-12T12:25:54.994Z,17.92
2018-08-12T12:26:54.998Z,17.92
2018-08-12T12:27:55.003Z,18.21
2018-08-12T12:28:55.013Z,18.12
2018-08-12T12:29:55.020Z,17.53
2018-08-12T12:30:55.022Z,17.82
2018-08-12T12:31:55.054Z,18.02
2018-08-12T12:32:55.033Z,18.02
2018-08-12T12:33:55.041Z,18.02
2018-08-12T12:34:55.052Z,17.72
2018-08-12T12:35:55.052Z,18.02
2018-08-12T12:36:55.059Z,17.92
2018-08-12T12:37:55.100Z,17.92
2018-08-12T12:38:55.072Z,18.51
2018-08-12T12:39:55.077Z,18.80
2018-08-12T12:40:55.082Z,18.70
2018-08-12T12:41:55.090Z,18.80
2018-08-12T12:42:55.130Z,18.80
2018-08-12T12:43:55.102Z,18.79
2018-08-12T12:44:55.107Z,18.98
2018-08-12T12:45:55.113Z,18.90
2018-08-12T12:46:55.122Z,18.70
2018-08-12T12:47:55.126Z,18.80
2018-08-12T12:48:55.134Z,18.90
2018-08-12T12:49:55.140Z,18.99
2018-08-12T12:50:55.144Z,19.09
2018-08-12T12:51:55.150Z,19.19
2018-08-12T12:52:55.157Z,18.80
2018-08-12T12:53:55.171Z,18.80